createdAt,value
2022-11-15T00:02:05.128Z,12.55
2022-11-15T00:05:10.814Z,13.52
2022-11-15T00:08:16.501Z,10.95
2022-11-15T00:11:23.518Z,10.52
2022-11-15T00:14:29.048Z,10.85
2022-11-15T00:17:35.016Z,10.20
2022-11-15T00:20:40.642Z,9.30
2022-11-15T00:23:46.181Z,11.50
2022-11-15T00:26:53.103Z,11.98
2022-11-15T00:29:58.740Z,10.15
2022-11-15T00:33:05.388Z,8.40
2022-11-15T00:36:11.778Z,10.63
2022-11-15T00:39:17.469Z,12.73
2022-11-15T00:42:24.605Z,9.93
2022-11-15T00:45:30.206Z,13.38
2022-11-15T00:48:35.332Z,13.60
2022-11-15T00:51:41.069Z,9.85
2022-11-15T00:54:46.585Z,8.52
2022-11-15T00:57:53.360Z,10.48
2022-11-15T01:00:58.873Z,10.65
2022-11-15T01:04:04.297Z,11.10
2022-11-15T01:07:09.703Z,10.98
2022-11-15T01:10:15.148Z,9.95
2022-11-15T01:13:21.899Z,9.88
2022-11-15T01:16:27.460Z,9.27
2022-11-15T01:19:32.870Z,9.18
2022-11-15T01:22:38.325Z,11.38
2022-11-15T01:25:43.685Z,11.38
2022-11-15T01:28:50.714Z,9.35
2022-11-15T01:31:56.208Z,12.30
2022-11-15T01:35:01.658Z,11.15
2022-11-15T01:38:07.394Z,14.50
2022-11-15T01:41:19.266Z,10.95
2022-11-15T01:44:42.480Z,11.95
2022-11-15T01:47:52.825Z,7.90
2022-11-15T01:50:58.874Z,9.95
2022-11-15T01:54:08.718Z,10.82
2022-11-15T01:57:15.372Z,10.80
2022-11-15T02:00:22.557Z,12.05
2022-11-15T02:03:43.870Z,14.00
2022-11-15T02:06:51.179Z,13.07
2022-11-15T02:09:58.495Z,9.05
2022-11-15T02:13:04.634Z,9.35
2022-11-15T02:16:18.449Z,8.13
2022-11-15T02:19:42.480Z,10.25
2022-11-15T02:23:02.849Z,9.73
2022-11-15T02:26:32.840Z,9.50
2022-11-15T02:30:06.156Z,12.60
2022-11-15T02:33:24.119Z,9.73
2022-11-15T02:36:39.699Z,9.82
2022-11-15T02:39:51.981Z,8.90
2022-11-15T02:43:19.726Z,11.48
2022-11-15T02:46:44.303Z,11.57
2022-11-15T02:49:54.214Z,9.27
2022-11-15T02:52:59.684Z,8.93
2022-11-15T02:56:05.253Z,6.82
2022-11-15T02:59:24.779Z,10.35
2022-11-15T03:02:48.051Z,10.30
2022-11-15T03:06:06.156Z,10.27
2022-11-15T03:09:19.680Z,10.45
2022-11-15T03:12:32.401Z,9.43
2022-11-15T03:15:42.629Z,9.60
2022-11-15T03:18:52.054Z,9.52
2022-11-15T03:22:01.996Z,9.55
2022-11-15T03:25:11.634Z,13.90
2022-11-15T03:28:22.483Z,9.32
2022-11-15T03:31:51.630Z,8.05
2022-11-15T03:35:01.113Z,8.45
2022-11-15T03:38:17.744Z,8.20
2022-11-15T03:41:30.113Z,11.00
2022-11-15T03:44:43.519Z,8.38
2022-11-15T03:47:53.864Z,8.43
2022-11-15T03:50:59.742Z,10.02
2022-11-15T03:54:07.595Z,11.25
2022-11-15T03:57:13.536Z,11.90
2022-11-15T04:00:19.396Z,9.77
2022-11-15T04:03:24.702Z,10.48
2022-11-15T04:06:30.077Z,11.93
2022-11-15T04:09:58.090Z,9.73
2022-11-15T04:13:05.212Z,8.10
2022-11-15T04:16:11.395Z,7.53
2022-11-15T04:19:34.609Z,8.68
2022-11-15T04:22:57.435Z,7.53
2022-11-15T04:26:08.115Z,11.12
2022-11-15T04:29:31.221Z,13.27
2022-11-15T04:32:38.410Z,9.38
2022-11-15T04:36:05.474Z,9.43
2022-11-15T04:39:11.139Z,10.20
2022-11-15T04:42:18.119Z,8.20
2022-11-15T04:45:26.606Z,10.63
2022-11-15T04:48:31.814Z,11.12
2022-11-15T04:51:37.271Z,8.70
2022-11-15T04:54:43.816Z,9.85
2022-11-15T04:58:00.098Z,13.85
2022-11-15T05:01:09.365Z,10.57
2022-11-15T05:04:23.725Z,10.38
2022-11-15T05:07:29.170Z,14.30
2022-11-15T05:10:34.780Z,10.63
2022-11-15T05:13:41.873Z,7.95
2022-11-15T05:16:47.072Z,9.80
2022-11-15T05:19:52.906Z,10.18
2022-11-15T05:22:58.283Z,12.05
2022-11-15T05:26:09.061Z,7.78
2022-11-15T05:29:16.679Z,10.75
2022-11-15T05:32:23.134Z,9.98
2022-11-15T05:35:33.011Z,7.10
2022-11-15T05:38:38.399Z,7.40
2022-11-15T05:41:46.867Z,9.93
2022-11-15T05:44:53.264Z,11.70
2022-11-15T05:48:02.437Z,9.85
2022-11-15T05:51:09.521Z,7.28
2022-11-15T05:54:15.857Z,8.82
2022-11-15T05:57:21.304Z,6.85
2022-11-15T06:00:28.184Z,11.60
2022-11-15T06:03:33.888Z,9.93
2022-11-15T06:06:39.625Z,9.45
2022-11-15T06:09:45.066Z,8.95
2022-11-15T06:12:58.498Z,9.68
2022-11-15T06:16:05.752Z,6.82
2022-11-15T06:19:11.197Z,7.82
2022-11-15T06:22:16.531Z,7.32
2022-11-15T06:25:22.023Z,6.68
2022-11-15T06:28:30.758Z,7.40
2022-11-15T06:31:38.186Z,7.80
2022-11-15T06:34:43.832Z,7.87
2022-11-15T06:37:49.363Z,7.12
2022-11-15T06:40:54.614Z,8.80
2022-11-15T06:44:00.352Z,7.20
2022-11-15T06:47:07.317Z,7.37
2022-11-15T06:50:12.807Z,9.18
2022-11-15T06:53:18.031Z,9.80
2022-11-15T06:56:23.409Z,8.88
2022-11-15T06:59:28.887Z,8.23
2022-11-15T07:02:35.754Z,8.15
2022-11-15T07:05:41.278Z,8.20
2022-11-15T07:08:47.447Z,8.05
2022-11-15T07:11:53.071Z,7.70
2022-11-15T07:14:58.230Z,7.60
2022-11-15T07:18:05.063Z,9.25
2022-11-15T07:21:12.441Z,7.25
2022-11-15T07:24:18.214Z,7.35
2022-11-15T07:27:23.846Z,9.57
2022-11-15T07:30:30.187Z,9.15
2022-11-15T07:33:37.258Z,7.72
2022-11-15T07:36:42.977Z,7.40
2022-11-15T07:39:48.782Z,8.60
2022-11-15T07:42:58.107Z,10.45
2022-11-15T07:46:10.144Z,7.87
2022-11-15T07:49:17.045Z,7.22
2022-11-15T07:52:22.988Z,9.85
2022-11-15T07:55:30.804Z,7.53
2022-11-15T07:58:36.420Z,8.43
2022-11-15T08:01:42.303Z,6.03
2022-11-15T08:04:49.350Z,5.45
2022-11-15T08:07:57.360Z,8.98
2022-11-15T08:11:03.389Z,9.38
2022-11-15T08:14:08.911Z,6.78
2022-11-15T08:17:14.691Z,7.18
2022-11-15T08:20:21.684Z,6.93
2022-11-15T08:23:26.934Z,6.60
2022-11-15T08:26:32.563Z,6.75
2022-11-15T08:29:38.628Z,9.30
2022-11-15T08:32:44.022Z,7.15
2022-11-15T08:35:50.787Z,5.65
2022-11-15T08:38:56.279Z,6.97
2022-11-15T08:42:01.778Z,7.50
2022-11-15T08:45:08.929Z,6.85
2022-11-15T08:48:14.248Z,5.68
2022-11-15T08:51:20.940Z,5.55
2022-11-15T08:54:26.877Z,5.62
2022-11-15T08:57:32.483Z,6.78
2022-11-15T09:00:37.894Z,5.53
2022-11-15T09:03:43.350Z,8.90
2022-11-15T09:06:51.276Z,6.53
2022-11-15T09:09:57.646Z,8.48
2022-11-15T09:13:03.069Z,5.78
2022-11-15T09:16:08.933Z,7.30
2022-11-15T09:19:15.779Z,7.68
2022-11-15T09:22:23.335Z,5.78
2022-11-15T09:25:29.198Z,4.30
2022-11-15T09:28:35.799Z,6.75
2022-11-15T09:31:41.211Z,5.40
2022-11-15T09:34:46.743Z,5.43
2022-11-15T09:37:56.346Z,8.13
2022-11-15T09:41:23.655Z,7.03
2022-11-15T09:44:51.922Z,6.65
2022-11-15T09:48:36.017Z,8.88
2022-11-15T09:51:30.037Z,4.75
2022-11-15T09:57:47.783Z,5.95
2022-11-15T10:00:46.341Z,5.85
2022-11-15T10:03:38.477Z,6.43
2022-11-15T10:06:27.429Z,5.40
2022-11-15T10:09:22.847Z,5.40
2022-11-15T10:12:14.999Z,3.70
2022-11-15T10:15:06.239Z,4.05
2022-11-15T10:18:09.974Z,4.43
2022-11-15T10:21:01.442Z,7.00
2022-11-15T10:23:48.204Z,3.47
2022-11-15T10:26:35.016Z,6.53
2022-11-15T10:29:27.104Z,5.37
2022-11-15T10:32:15.743Z,3.37
2022-11-15T10:35:19.500Z,4.05
2022-11-15T10:38:08.562Z,4.37
2022-11-15T10:41:09.233Z,2.75
2022-11-15T10:44:10.649Z,4.43
2022-11-15T10:47:37.830Z,3.40
2022-11-15T10:50:32.985Z,4.03
2022-11-15T10:53:25.924Z,4.72
2022-11-15T10:56:17.005Z,4.28
2022-11-15T10:59:03.878Z,4.03
2022-11-15T11:01:51.228Z,3.97
2022-11-15T11:04:51.909Z,4.05
2022-11-15T11:07:41.682Z,4.00
2022-11-15T11:10:50.354Z,3.33
2022-11-15T11:13:37.930Z,3.53
2022-11-15T11:16:47.163Z,3.30
2022-11-15T11:19:59.071Z,4.95
2022-11-15T11:22:59.679Z,3.30
2022-11-15T11:25:55.488Z,4.70
2022-11-15T11:28:38.445Z,3.87
2022-11-15T11:31:22.254Z,2.83
2022-11-15T11:34:00.769Z,2.92
2022-11-15T11:36:41.245Z,4.32
2022-11-15T11:39:26.365Z,2.47
2022-11-15T11:42:04.927Z,3.40
2022-11-15T11:44:41.550Z,5.28
2022-11-15T11:47:13.120Z,2.78
2022-11-15T11:49:46.931Z,2.50
2022-11-15T11:52:19.090Z,2.55
2022-11-15T11:55:05.967Z,3.17
2022-11-15T11:57:44.017Z,2.17
2022-11-15T12:00:22.117Z,2.97
2022-11-15T12:03:10.208Z,2.60
2022-11-15T12:05:42.627Z,2.58
2022-11-15T12:08:28.105Z,3.30
2022-11-15T12:11:05.902Z,4.97
2022-11-15T12:13:37.797Z,2.08
2022-11-15T12:16:14.126Z,2.80
2022-11-15T12:18:46.739Z,3.10
2022-11-15T12:21:28.102Z,3.00
2022-11-15T12:24:05.111Z,2.47
2022-11-15T12:26:39.542Z,2.80
2022-11-15T12:29:14.176Z,3.03
2022-11-15T12:31:46.871Z,2.53
2022-11-15T12:34:32.461Z,5.25
2022-11-15T12:37:00.761Z,3.17
2022-11-15T12:40:06.996Z,2.37
2022-11-15T12:42:43.325Z,1.67
2022-11-15T12:45:28.490Z,3.40
2022-11-15T12:48:14.031Z,2.83
2022-11-15T12:50:59.136Z,3.00
2022-11-15T12:53:31.915Z,2.25
2022-11-15T12:56:25.982Z,1.73
2022-11-15T12:58:58.289Z,2.35
2022-11-15T13:01:59.851Z,2.05
2022-11-15T13:04:30.736Z,1.95
2022-11-15T13:07:04.217Z,3.65
2022-11-15T13:09:55.995Z,2.05
2022-11-15T13:12:54.887Z,2.25
2022-11-15T13:16:00.654Z,2.08
2022-11-15T13:18:38.343Z,4.53
2022-11-15T13:21:38.829Z,2.30
2022-11-15T13:24:14.423Z,3.45
2022-11-15T13:26:42.704Z,1.83
2022-11-15T13:29:19.666Z,1.77
2022-11-15T13:31:50.303Z,2.72
2022-11-15T13:37:32.079Z,1.80
2022-11-15T13:40:20.194Z,1.35
2022-11-15T13:42:48.497Z,3.75
2022-11-15T13:45:19.717Z,2.72
2022-11-15T13:47:56.510Z,2.67
2022-11-15T13:50:28.668Z,1.75
2022-11-15T13:53:00.799Z,2.30
2022-11-15T13:55:30.518Z,2.17
2022-11-15T13:58:01.023Z,2.53
2022-11-15T14:00:39.719Z,3.72
2022-11-15T14:03:18.520Z,3.70
2022-11-15T14:06:03.283Z,3.62
2022-11-15T14:08:32.308Z,2.47
2022-11-15T14:11:17.751Z,2.55
2022-11-15T14:14:06.701Z,1.95
2022-11-15T14:16:37.544Z,1.65
2022-11-15T14:19:09.178Z,1.95
2022-11-15T14:21:38.505Z,4.50
2022-11-15T14:24:17.384Z,2.00
2022-11-15T14:26:46.374Z,2.92
2022-11-15T14:29:25.207Z,2.05
2022-11-15T14:31:53.594Z,3.25
2022-11-15T14:34:23.668Z,3.78
2022-11-15T14:36:52.277Z,4.40
2022-11-15T14:39:20.454Z,1.67
2022-11-15T14:41:50.107Z,2.22
2022-11-15T14:44:51.174Z,5.03
2022-11-15T14:47:20.699Z,2.90
2022-11-15T14:49:50.309Z,3.55
2022-11-15T14:52:32.236Z,2.80
2022-11-15T14:55:03.264Z,2.37
2022-11-15T14:57:32.334Z,1.73
2022-11-15T15:00:00.832Z,4.37
2022-11-15T15:02:40.987Z,4.55
2022-11-15T15:05:19.411Z,2.95
2022-11-15T15:07:48.768Z,2.75
2022-11-15T15:10:39.584Z,6.80
2022-11-15T15:13:08.538Z,2.87
2022-11-15T15:15:38.632Z,1.87
2022-11-15T15:18:09.477Z,4.22
2022-11-15T15:20:41.261Z,5.62
2022-11-15T15:23:17.616Z,4.72
2022-11-15T15:25:47.313Z,3.22
2022-11-15T15:28:15.832Z,3.62
2022-11-15T15:30:44.065Z,3.37
2022-11-15T15:33:12.351Z,6.35
2022-11-15T15:35:42.244Z,3.42
2022-11-15T15:38:13.093Z,4.40
2022-11-15T15:40:41.670Z,3.28
2022-11-15T15:43:10.303Z,4.18
2022-11-15T15:45:40.335Z,5.57
2022-11-15T15:48:13.328Z,3.60
2022-11-15T15:50:44.245Z,3.60
2022-11-15T15:53:13.756Z,4.90
2022-11-15T15:55:42.427Z,4.53
2022-11-15T15:58:10.693Z,5.53
2022-11-15T16:00:39.833Z,4.45
2022-11-15T16:03:08.444Z,4.53
2022-11-15T16:05:36.804Z,6.57
2022-11-15T16:08:06.689Z,5.30
2022-11-15T16:10:37.691Z,6.12
2022-11-15T16:13:06.132Z,6.53
2022-11-15T16:15:34.683Z,4.43
2022-11-15T16:18:03.627Z,4.57
2022-11-15T16:20:38.311Z,7.10
2022-11-15T16:23:10.961Z,5.03
2022-11-15T16:25:41.872Z,5.03
2022-11-15T16:28:18.751Z,5.87
2022-11-15T16:30:50.018Z,3.53
2022-11-15T16:33:22.301Z,5.55
2022-11-15T16:35:50.483Z,5.57
2022-11-15T16:38:20.298Z,5.22
2022-11-15T16:40:48.809Z,5.43
2022-11-15T16:43:17.122Z,8.00
2022-11-15T16:45:45.305Z,6.90
2022-11-15T16:48:23.708Z,4.50
2022-11-15T16:50:52.511Z,4.40
2022-11-15T16:53:22.336Z,6.72
2022-11-15T16:55:50.709Z,4.85
2022-11-15T16:58:18.883Z,5.45
2022-11-15T17:00:47.367Z,6.03
2022-11-15T17:03:15.469Z,7.87
2022-11-15T17:05:43.672Z,6.20
2022-11-15T17:08:12.135Z,7.55
2022-11-15T17:10:42.413Z,5.53
2022-11-15T17:13:13.207Z,8.60
2022-11-15T17:15:41.742Z,5.35
2022-11-15T17:18:12.318Z,7.62
2022-11-15T17:20:41.906Z,5.80
2022-11-15T17:23:14.501Z,7.28
2022-11-15T17:25:45.711Z,7.70
2022-11-15T17:28:14.105Z,8.52
2022-11-15T17:30:43.839Z,6.40
2022-11-15T17:33:12.226Z,8.77
2022-11-15T17:35:40.712Z,8.45
2022-11-15T17:38:08.847Z,9.52
2022-11-15T17:40:37.093Z,7.60
2022-11-15T17:43:07.852Z,8.80
2022-11-15T17:45:37.519Z,9.73
2022-11-15T17:48:06.219Z,9.57
2022-11-15T17:50:34.372Z,9.20
2022-11-15T17:53:02.587Z,10.52
2022-11-15T17:55:31.048Z,10.38
2022-11-15T17:57:59.149Z,10.25
2022-11-15T18:00:28.750Z,10.07
2022-11-15T18:02:58.327Z,12.20
2022-11-15T18:05:26.536Z,10.30
2022-11-15T18:07:54.750Z,9.00
2022-11-15T18:10:23.403Z,9.93
2022-11-15T18:12:51.586Z,9.10
2022-11-15T18:15:21.349Z,9.32
2022-11-15T18:17:51.140Z,12.07
2022-11-15T18:20:19.729Z,10.25
2022-11-15T18:22:48.256Z,9.95
2022-11-15T18:25:16.826Z,12.37
2022-11-15T18:27:45.132Z,9.45
2022-11-15T18:30:14.126Z,12.18
2022-11-15T18:32:43.003Z,13.30
2022-11-15T18:35:12.739Z,9.60
2022-11-15T18:37:41.026Z,11.40
2022-11-15T18:40:10.755Z,14.43
2022-11-15T18:42:39.271Z,14.23
2022-11-15T18:45:09.604Z,15.15
2022-11-15T18:47:38.589Z,14.40
2022-11-15T18:50:07.497Z,13.05
2022-11-15T18:52:37.093Z,14.35
2022-11-15T18:55:06.202Z,11.52
2022-11-15T18:57:34.513Z,11.65
2022-11-15T19:00:03.051Z,14.65
2022-11-15T19:02:31.892Z,16.65
2022-11-15T19:05:00.190Z,12.65
2022-11-15T19:07:28.472Z,13.10
2022-11-15T19:09:58.396Z,12.98
2022-11-15T19:12:26.678Z,11.18
2022-11-15T19:14:54.902Z,16.50
2022-11-15T19:17:23.443Z,12.20
2022-11-15T19:19:51.771Z,12.48
2022-11-15T19:22:20.076Z,12.70
2022-11-15T19:24:48.651Z,11.68
2022-11-15T19:27:18.425Z,14.98
2022-11-15T19:29:46.974Z,14.90
2022-11-15T19:32:15.657Z,13.88
2022-11-15T19:34:44.062Z,20.30
2022-11-15T19:37:12.406Z,19.75
2022-11-15T19:39:41.486Z,18.70
2022-11-15T19:42:09.742Z,13.93
2022-11-15T19:44:39.288Z,13.77
2022-11-15T19:47:09.323Z,14.00
2022-11-15T19:49:37.711Z,15.20
2022-11-15T19:52:06.298Z,10.93
2022-11-15T19:54:34.864Z,15.90
2022-11-15T19:57:03.200Z,16.48
2022-11-15T19:59:31.537Z,16.25
2022-11-15T20:02:01.707Z,15.35
2022-11-15T20:04:30.163Z,14.68
2022-11-15T20:06:58.281Z,20.95
2022-11-15T20:09:26.656Z,16.98
2022-11-15T20:11:55.436Z,16.42
2022-11-15T20:14:24.145Z,17.37
2022-11-15T20:16:54.469Z,14.52
2022-11-15T20:19:24.679Z,17.00
2022-11-15T20:21:53.217Z,14.70
2022-11-15T20:24:21.540Z,15.55
2022-11-15T20:26:50.055Z,15.93
2022-11-15T20:29:18.155Z,17.00
2022-11-15T20:31:46.777Z,15.40
2022-11-15T20:34:15.972Z,13.40
2022-11-15T20:36:45.594Z,15.98
2022-11-15T20:39:13.774Z,16.17
2022-11-15T20:41:42.388Z,14.20
2022-11-15T20:44:10.659Z,15.38
2022-11-15T20:46:38.813Z,18.40
2022-11-15T20:49:07.438Z,15.38
2022-11-15T20:51:36.450Z,18.75
2022-11-15T20:54:06.285Z,17.98
2022-11-15T20:56:34.758Z,14.35
2022-11-15T20:59:02.925Z,20.33
2022-11-15T21:01:31.944Z,17.10
2022-11-15T21:04:00.826Z,14.55
2022-11-15T21:06:28.968Z,16.65
2022-11-15T21:09:14.662Z,15.25
2022-11-15T21:12:02.359Z,14.35
2022-11-15T21:14:31.259Z,16.52
2022-11-15T21:16:59.759Z,16.62
2022-11-15T21:19:32.682Z,14.57
2022-11-15T21:22:05.539Z,18.08
2022-11-15T21:24:33.798Z,14.43
2022-11-15T21:27:03.603Z,16.40
2022-11-15T21:29:37.598Z,15.65
2022-11-15T21:32:07.427Z,15.65
2022-11-15T21:34:36.050Z,17.23
2022-11-15T21:37:04.333Z,15.75
2022-11-15T21:39:32.462Z,16.92
2022-11-15T21:42:01.042Z,14.38
2022-11-15T21:44:30.889Z,16.75
2022-11-15T21:46:59.287Z,14.90
2022-11-15T21:49:27.789Z,16.10
2022-11-15T21:51:55.947Z,15.43
2022-11-15T21:54:24.168Z,19.37
2022-11-15T21:56:52.648Z,17.37
2022-11-15T21:59:20.735Z,17.75
2022-11-15T22:02:07.607Z,16.60
2022-11-15T22:04:36.073Z,16.30
2022-11-15T22:07:04.267Z,20.25
2022-11-15T22:09:32.369Z,16.70
2022-11-15T22:12:00.932Z,15.68
2022-11-15T22:14:29.177Z,17.40
2022-11-15T22:16:58.623Z,20.15
2022-11-15T22:19:27.214Z,15.45
2022-11-15T22:21:55.490Z,15.90
2022-11-15T22:24:23.683Z,15.75
2022-11-15T22:26:52.901Z,16.90
2022-11-15T22:29:21.286Z,13.52
2022-11-15T22:31:49.550Z,15.98
2022-11-15T22:34:19.707Z,15.45
2022-11-15T22:37:18.038Z,17.33
2022-11-15T22:39:36.478Z,18.80
2022-11-15T22:42:04.782Z,18.67
2022-11-15T22:44:32.999Z,16.50
2022-11-15T22:47:01.439Z,14.18
2022-11-15T22:49:30.951Z,17.37
2022-11-15T22:51:59.335Z,14.77
2022-11-15T22:54:28.835Z,13.95
2022-11-15T22:56:57.322Z,15.65
2022-11-15T22:59:26.209Z,16.15
2022-11-15T23:01:54.701Z,17.08
2022-11-15T23:04:23.310Z,16.12
2022-11-15T23:06:53.089Z,19.75
2022-11-15T23:09:21.846Z,16.08
2022-11-15T23:12:07.594Z,14.07
2022-11-15T23:14:36.087Z,13.00
2022-11-15T23:17:04.317Z,16.73
2022-11-15T23:19:32.567Z,14.68
2022-11-15T23:22:20.378Z,13.82
2022-11-15T23:24:48.635Z,15.38
2022-11-15T23:27:19.974Z,11.77
2022-11-15T23:30:06.186Z,15.45
2022-11-15T23:32:52.186Z,15.30
2022-11-15T23:35:20.750Z,13.10
2022-11-15T23:37:50.980Z,13.38
2022-11-15T23:40:19.385Z,13.13
2022-11-15T23:42:47.753Z,14.65
2022-11-15T23:45:16.373Z,19.20
2022-11-15T23:47:49.757Z,14.00
2022-11-15T23:50:18.621Z,16.02
2022-11-15T23:52:46.838Z,18.05
2022-11-15T23:55:16.638Z,14.20
2022-11-15T23:57:45.160Z,14.80
